Time;durP1;ratioP1;P1;durP2;ratioP2;P2;SDS_P1;SDS_P2;PMS_P1;PMS_P2;Temp;Humidity;BMP_temperature;BMP_pressure;BME280_temperature;BME280_humidity;BME280_pressure;Samples;Min_cycle;Max_cycle;Signal;HPM_P1;HPM_P2
2022/03/03 00:00:20;;;;;;;10.25;6.00;;;;;;;;;;5016105;28;20484;-75
2022/03/03 00:02:46;;;;;;;8.13;6.05;;;;;;;;;;4998715;28;20025;-75
2022/03/03 00:05:12;;;;;;;7.97;5.82;;;;;;;;;;5015587;28;20026;-75
2022/03/03 00:07:39;;;;;;;7.70;5.60;;;;;;;;;;5020959;28;20485;-75
2022/03/03 00:10:06;;;;;;;7.63;5.65;;;;;;;;;;5017338;28;20037;-75
2022/03/03 00:12:32;;;;;;;7.55;5.72;;;;;;;;;;5018033;28;20037;-75
2022/03/03 00:14:59;;;;;;;8.30;5.90;;;;;;;;;;5018243;28;20118;-75
2022/03/03 00:17:25;;;;;;;7.05;5.35;;;;;;;;;;5036016;28;20464;-75
2022/03/03 00:19:51;;;;;;;8.50;5.85;;;;;;;;;;5034737;28;20385;-76
2022/03/03 00:22:17;;;;;;;7.72;5.45;;;;;;;;;;5016834;28;20076;-76
2022/03/03 00:24:44;;;;;;;7.68;5.32;;;;;;;;;;5017510;28;20523;-75
2022/03/03 00:27:11;;;;;;;6.22;4.72;;;;;;;;;;5035669;28;20028;-76
2022/03/03 00:29:37;;;;;;;5.63;4.60;;;;;;;;;;5035132;28;20021;-76
2022/03/03 00:32:04;;;;;;;6.45;5.15;;;;;;;;;;5034510;28;20037;-76
2022/03/03 00:34:30;;;;;;;6.28;4.70;;;;;;;;;;5017516;28;20455;-75
2022/03/03 00:36:56;;;;;;;8.20;5.15;;;;;;;;;;5035175;28;20132;-76
2022/03/03 00:39:22;;;;;;;6.93;4.90;;;;;;;;;;5027686;28;20072;-75
2022/03/03 00:41:49;;;;;;;6.22;4.70;;;;;;;;;;4997257;28;20025;-75
2022/03/03 00:44:15;;;;;;;6.82;4.65;;;;;;;;;;4997061;28;20075;-75
2022/03/03 00:46:41;;;;;;;5.35;4.63;;;;;;;;;;4997905;28;20060;-76
2022/03/03 00:49:08;;;;;;;6.82;4.88;;;;;;;;;;5015208;28;20030;-75
2022/03/03 00:51:34;;;;;;;5.32;4.40;;;;;;;;;;4997220;28;20029;-76
2022/03/03 00:54:01;;;;;;;5.90;4.22;;;;;;;;;;4997310;28;20022;-76
2022/03/03 00:56:28;;;;;;;6.72;4.60;;;;;;;;;;5014762;28;20029;-75
2022/03/03 00:58:54;;;;;;;5.32;3.97;;;;;;;;;;5014928;28;20026;-76
2022/03/03 01:01:20;;;;;;;5.47;4.18;;;;;;;;;;5013792;28;20426;-76
2022/03/03 01:03:46;;;;;;;5.55;4.65;;;;;;;;;;5014174;28;20113;-76
2022/03/03 01:06:13;;;;;;;5.22;4.00;;;;;;;;;;5013782;28;20034;-75
2022/03/03 01:08:40;;;;;;;5.63;4.55;;;;;;;;;;5013860;28;20112;-75
2022/03/03 01:11:06;;;;;;;6.25;4.43;;;;;;;;;;4996319;28;20084;-75
2022/03/03 01:13:32;;;;;;;5.63;4.45;;;;;;;;;;5013556;28;20030;-75
2022/03/03 01:16:00;;;;;;;6.35;4.10;;;;;;;;;;4994212;28;20521;-75
2022/03/03 01:18:26;;;;;;;5.78;4.13;;;;;;;;;;4994420;28;20022;-75
2022/03/03 01:20:54;;;;;;;5.70;3.92;;;;;;;;;;4993875;28;20125;-75
2022/03/03 01:23:20;;;;;;;5.13;3.83;;;;;;;;;;4994252;28;20492;-75
2022/03/03 01:25:47;;;;;;;5.50;4.15;;;;;;;;;;4993898;28;20097;-76
2022/03/03 01:28:13;;;;;;;5.50;3.83;;;;;;;;;;4994079;28;20027;-75
2022/03/03 01:30:39;;;;;;;5.43;4.20;;;;;;;;;;4993887;28;20556;-75
2022/03/03 01:33:06;;;;;;;5.75;4.40;;;;;;;;;;4993308;28;20030;-75
2022/03/03 01:35:33;;;;;;;5.47;4.18;;;;;;;;;;4994002;28;20029;-76
2022/03/03 01:37:59;;;;;;;4.22;3.58;;;;;;;;;;4994015;28;20034;-75
2022/03/03 01:40:25;;;;;;;5.32;3.88;;;;;;;;;;5008898;28;20026;-75
2022/03/03 01:42:51;;;;;;;5.40;3.78;;;;;;;;;;5002233;28;20030;-75
2022/03/03 01:45:18;;;;;;;4.45;3.70;;;;;;;;;;4976097;28;20033;-75
2022/03/03 01:47:44;;;;;;;4.55;3.55;;;;;;;;;;4994229;28;20444;-75
2022/03/03 01:50:10;;;;;;;5.25;3.65;;;;;;;;;;4995242;28;20038;-75
2022/03/03 01:52:36;;;;;;;5.32;4.10;;;;;;;;;;5013478;28;20026;-76
2022/03/03 01:55:02;;;;;;;5.35;3.83;;;;;;;;;;5012803;28;20073;-76
2022/03/03 01:57:28;;;;;;;5.40;4.00;;;;;;;;;;5013287;28;20377;-75
2022/03/03 01:59:55;;;;;;;4.82;3.95;;;;;;;;;;5012645;28;20405;-76
2022/03/03 02:02:21;;;;;;;3.97;3.58;;;;;;;;;;5012976;28;20544;-75
2022/03/03 02:04:48;;;;;;;4.22;3.55;;;;;;;;;;5013035;28;20454;-76
2022/03/03 02:07:14;;;;;;;4.57;3.80;;;;;;;;;;5013260;28;20021;-76
2022/03/03 02:09:41;;;;;;;7.45;4.00;;;;;;;;;;4998542;28;20065;-75
2022/03/03 02:12:07;;;;;;;4.80;3.65;;;;;;;;;;5009218;28;20030;-78
2022/03/03 02:14:43;;;;;;;4.57;3.92;;;20.10;66.70;;;;;;4993101;28;20092;-76
2022/03/03 02:17:09;;;;;;;6.22;3.75;;;;;;;;;;4980619;28;20018;-76
2022/03/03 02:19:36;;;;;;;5.10;3.97;;;;;;;;;;5032420;28;20450;-76
2022/03/03 02:22:02;;;;;;;5.63;3.55;;;;;;;;;;5014238;28;20060;-76
2022/03/03 02:24:28;;;;;;;4.47;3.22;;;;;;;;;;5032669;28;20026;-76
2022/03/03 02:26:54;;;;;;;5.00;3.72;;;;;;;;;;4993659;28;20033;-76
2022/03/03 02:29:20;;;;;;;5.97;4.00;;;;;;;;;;4992850;28;20417;-76
2022/03/03 02:31:48;;;;;;;5.50;3.63;;;;;;;;;;4992459;28;20026;-76
2022/03/03 02:34:14;;;;;;;3.72;3.30;;;;;;;;;;4992891;28;20054;-76
2022/03/03 02:36:40;;;;;;;4.45;3.53;;;;;;;;;;4992781;28;20030;-76
2022/03/03 02:39:06;;;;;;;4.22;3.20;;;;;;;;;;4975394;28;20030;-75
2022/03/03 02:41:33;;;;;;;5.63;3.58;;;;;;;;;;4992975;28;20046;-75
2022/03/03 02:44:01;;;;;;;5.32;3.80;;;;;;;;;;4975219;28;20030;-75
2022/03/03 02:46:27;;;;;;;4.18;3.50;;;;;;;;;;4992516;28;20023;-75
2022/03/03 02:48:53;;;;;;;5.55;3.78;;;;;;;;;;4992895;28;20026;-75
2022/03/03 02:51:19;;;;;;;4.72;3.70;;;;;;;;;;5003342;28;20029;-75
2022/03/03 02:53:46;;;;;;;4.25;3.28;;;;;;;;;;5012238;28;20069;-75
2022/03/03 02:56:12;;;;;;;3.40;3.10;;;;;;;;;;4994326;28;20042;-75
2022/03/03 02:58:38;;;;;;;5.05;3.92;;;;;;;;;;5012560;28;20022;-75
2022/03/03 03:01:05;;;;;;;4.05;3.53;;;;;;;;;;5012033;28;20084;-75
2022/03/03 03:03:31;;;;;;;4.10;3.28;;;;;;;;;;5012291;28;20476;-75
2022/03/03 03:05:57;;;;;;;8.18;3.78;;;;;;;;;;5012405;28;20049;-75
2022/03/03 03:08:23;;;;;;;4.28;3.47;;;;;;;;;;5012046;28;20046;-75
2022/03/03 03:10:49;;;;;;;5.28;3.83;;;;;;;;;;5012147;28;20033;-75
2022/03/03 03:13:15;;;;;;;4.88;3.55;;;;;;;;;;5012289;28;20080;-76
2022/03/03 03:15:45;;;;;;;5.47;4.10;;;;;;;;;;5011812;28;20033;-75
2022/03/03 03:18:19;;;;;;;5.05;3.63;;;19.50;63.90;;;;;;4992860;28;20369;-75
2022/03/03 03:20:46;;;;;;;;;;;20.00;63.50;;;;;;4992294;28;20037;-76
2022/03/03 03:23:13;;;;;;;5.65;3.63;;;;;;;;;;4992560;28;19918;-75
2022/03/03 03:25:43;;;;;;;4.25;3.50;;;;;;;;;;4994007;28;20103;-75
2022/03/03 03:28:14;;;;;;;4.80;3.25;;;17.40;63.10;;;;;;4978705;28;20033;-75
2022/03/03 03:30:41;;;;;;;4.82;3.90;;;;;;;;;;4978584;28;20027;-76
2022/03/03 03:33:07;;;;;;;4.90;3.60;;;;;;;;;;4978716;28;20031;-76
2022/03/03 03:35:33;;;;;;;4.25;3.35;;;;;;;;;;4978592;28;20441;-76
2022/03/03 03:38:00;;;;;;;4.35;3.35;;;;;;;;;;4995816;28;20034;-76
2022/03/03 03:40:26;;;;;;;3.30;3.00;;;;;;;;;;4995922;28;20030;-76
2022/03/03 03:42:52;;;;;;;3.92;3.20;;;;;;;;;;4995511;28;20026;-76
2022/03/03 03:45:18;;;;;;;5.18;3.80;;;;;;;;;;4996060;28;20026;-76
2022/03/03 03:47:44;;;;;;;4.13;3.35;;;;;;;;;;4996015;28;20499;-76
2022/03/03 03:50:12;;;;;;;4.95;3.53;;;;;;;;;;4995990;28;20062;-76
2022/03/03 03:52:39;;;;;;;5.00;3.60;;;;;;;;;;4995896;28;20042;-76
2022/03/03 03:55:06;;;;;;;5.00;3.38;;;;;;;;;;4995968;28;20077;-76
2022/03/03 03:57:32;;;;;;;4.22;3.38;;;;;;;;;;4995634;28;20084;-76
2022/03/03 03:59:58;;;;;;;4.32;3.45;;;;;;;;;;4995685;28;20027;-76
2022/03/03 04:02:24;;;;;;;4.38;3.17;;;;;;;;;;4995173;28;20030;-76
2022/03/03 04:04:51;;;;;;;3.53;3.20;;;;;;;;;;4995307;28;20018;-76
2022/03/03 04:07:17;;;;;;;4.72;3.58;;;;;;;;;;4978136;28;20023;-76
2022/03/03 04:09:44;;;;;;;4.90;3.75;;;;;;;;;;4978847;28;20057;-76
2022/03/03 04:12:10;;;;;;;4.40;3.25;;;;;;;;;;4995461;28;20046;-76
2022/03/03 04:14:36;;;;;;;4.53;3.33;;;;;;;;;;4981738;28;20112;-76
2022/03/03 04:17:03;;;;;;;4.03;2.97;;;;;;;;;;5014929;28;20417;-76
2022/03/03 04:19:29;;;;;;;3.92;3.22;;;;;;;;;;5015573;28;20041;-76
2022/03/03 04:21:55;;;;;;;4.88;3.17;;;;;;;;;;5015063;28;20409;-75
2022/03/03 04:24:21;;;;;;;3.30;2.78;;;;;;;;;;5015577;28;20022;-76
2022/03/03 04:26:47;;;;;;;4.18;3.13;;;;;;;;;;5015029;28;20022;-76
2022/03/03 04:29:13;;;;;;;3.63;2.60;;;;;;;;;;5014880;28;20076;-76
2022/03/03 04:31:39;;;;;;;3.50;3.10;;;;;;;;;;5014086;28;20053;-76
2022/03/03 04:34:05;;;;;;;3.70;2.85;;;;;;;;;;4997102;28;20087;-76
2022/03/03 04:36:31;;;;;;;3.42;2.75;;;;;;;;;;5014206;28;20363;-76
2022/03/03 04:38:58;;;;;;;4.50;3.40;;;;;;;;;;5014543;28;20034;-76
2022/03/03 04:41:24;;;;;;;3.78;3.00;;;;;;;;;;5013622;28;20030;-76
2022/03/03 04:43:50;;;;;;;5.40;3.08;;;;;;;;;;5034144;28;20021;-76
2022/03/03 04:46:16;;;;;;;4.53;3.15;;;;;;;;;;5034009;28;20025;-76
2022/03/03 04:48:42;;;;;;;4.13;3.10;;;;;;;;;;5034336;28;20488;-76
2022/03/03 04:51:09;;;;;;;3.55;2.80;;;;;;;;;;5024656;28;20061;-77
2022/03/03 04:53:35;;;;;;;3.35;2.80;;;;;;;;;;5014002;28;20032;-76
2022/03/03 04:56:01;;;;;;;3.67;2.90;;;;;;;;;;5014924;28;20377;-76
2022/03/03 04:58:27;;;;;;;4.18;2.90;;;;;;;;;;5014614;28;20026;-76
2022/03/03 05:00:53;;;;;;;3.65;2.85;;;;;;;;;;5014604;28;20033;-76
2022/03/03 05:03:20;;;;;;;3.63;2.83;;;;;;;;;;5013521;28;20026;-77
2022/03/03 05:05:46;;;;;;;4.63;3.00;;;;;;;;;;5014973;28;20037;-77
2022/03/03 05:08:12;;;;;;;4.10;2.97;;;;;;;;;;5014364;28;20463;-76
2022/03/03 05:10:38;;;;;;;3.53;2.60;;;;;;;;;;5014666;28;20477;-76
2022/03/03 05:13:04;;;;;;;3.92;2.65;;;;;;;;;;5014345;28;20034;-77
2022/03/03 05:15:30;;;;;;;4.20;2.88;;;;;;;;;;5014647;28;20485;-77
2022/03/03 05:17:58;;;;;;;4.63;3.10;;;;;;;;;;5014597;28;20426;-77
2022/03/03 05:20:24;;;;;;;3.55;2.55;;;;;;;;;;5014129;28;20034;-77
2022/03/03 05:22:50;;;;;;;2.72;2.47;;;;;;;;;;5014002;28;20120;-76
2022/03/03 05:25:16;;;;;;;4.25;2.75;;;;;;;;;;5013982;28;20029;-76
2022/03/03 05:27:42;;;;;;;3.80;2.90;;;;;;;;;;5013601;28;20101;-76
2022/03/03 05:30:09;;;;;;;4.15;2.70;;;;;;;;;;5014148;28;20037;-76
2022/03/03 05:32:36;;;;;;;4.20;2.88;;;;;;;;;;5013397;28;20092;-76
2022/03/03 05:35:02;;;;;;;2.88;2.40;;;;;;;;;;5013604;28;20042;-76
2022/03/03 05:37:28;;;;;;;3.72;2.78;;;;;;;;;;5013587;28;20034;-76
2022/03/03 05:39:54;;;;;;;3.17;2.42;;;;;;;;;;5013595;28;20034;-76
2022/03/03 05:42:22;;;;;;;3.20;2.80;;;;;;;;;;5019647;28;20021;-76
2022/03/03 05:44:49;;;;;;;3.80;2.60;;;;;;;;;;5033117;28;20471;-76
2022/03/03 05:47:15;;;;;;;2.80;2.20;;;;;;;;;;5032801;28;20080;-76
2022/03/03 05:49:43;;;;;;;3.17;2.60;;;;;;;;;;5032679;28;20033;-76
2022/03/03 05:52:09;;;;;;;3.28;2.53;;;;;;;;;;5014066;28;20075;-76
2022/03/03 05:54:36;;;;;;;2.47;2.28;;;;;;;;;;5013055;28;20030;-76
2022/03/03 05:57:03;;;;;;;2.65;2.45;;;;;;;;;;5013134;28;20052;-76
2022/03/03 05:59:32;;;;;;;3.47;2.78;;;;;;;;;;5013094;28;20030;-76
2022/03/03 06:01:58;;;;;;;3.20;2.20;;;;;;;;;;5012737;28;20024;-76
2022/03/03 06:04:27;;;;;;;4.15;2.92;;;;;;;;;;5012737;28;20444;-76
2022/03/03 06:07:07;;;;;;;4.10;2.55;;;19.70;63.60;;;;;;4995392;28;20117;-76
2022/03/03 06:09:34;;;;;;;3.80;2.80;;;;;;;;;;5012790;28;20176;-76
2022/03/03 06:12:13;;;;;;;4.03;2.80;;;19.60;65.00;;;;;;5012491;28;20046;-76
2022/03/03 06:14:40;;;;;;;3.28;2.20;;;;;;;;;;5012774;28;20026;-76
2022/03/03 06:17:07;;;;;;;2.65;2.20;;;;;;;;;;5023910;28;20033;-76
2022/03/03 06:19:39;;;;;;;4.57;2.80;;;;;;;;;;5032308;28;20377;-76
2022/03/03 06:22:05;;;;;;;3.38;2.88;;;;;;;;;;5031952;28;20083;-76
2022/03/03 06:24:31;;;;;;;2.75;2.40;;;;;;;;;;5014622;28;20107;-76
2022/03/03 06:26:57;;;;;;;3.80;2.45;;;;;;;;;;5032212;28;20026;-76
2022/03/03 06:29:23;;;;;;;3.80;2.35;;;;;;;;;;5032351;28;20064;-76
2022/03/03 06:31:49;;;;;;;2.92;2.42;;;;;;;;;;5031882;28;20408;-76
2022/03/03 06:34:16;;;;;;;2.97;2.20;;;;;;;;;;5032296;28;20064;-76
2022/03/03 06:36:42;;;;;;;2.47;2.17;;;;;;;;;;5032421;28;20053;-76
2022/03/03 06:39:08;;;;;;;2.55;2.28;;;;;;;;;;5032344;28;20564;-76
2022/03/03 06:41:34;;;;;;;3.63;2.28;;;;;;;;;;5012941;28;20029;-76
2022/03/03 06:44:00;;;;;;;3.00;2.40;;;;;;;;;;4995131;28;20060;-76
2022/03/03 06:46:26;;;;;;;3.22;2.17;;;;;;;;;;5013780;28;20022;-76
2022/03/03 06:48:52;;;;;;;3.63;2.58;;;;;;;;;;5012751;28;20030;-76
2022/03/03 06:51:20;;;;;;;4.00;2.40;;;;;;;;;;5023412;28;20179;-76
2022/03/03 06:53:47;;;;;;;4.63;2.67;;;;;;;;;;5031860;28;20407;-76
2022/03/03 06:56:13;;;;;;;3.97;2.33;;;;;;;;;;5031821;28;20030;-76
2022/03/03 06:58:40;;;;;;;4.80;2.53;;;;;;;;;;5032282;28;20038;-76
2022/03/03 07:01:08;;;;;;;3.58;2.42;;;;;;;;;;5031676;28;20033;-76
2022/03/03 07:03:35;;;;;;;3.05;2.38;;;;;;;;;;5031294;28;20037;-76
2022/03/03 07:06:02;;;;;;;3.58;2.47;;;;;;;;;;5031716;28;20489;-76
2022/03/03 07:08:28;;;;;;;2.85;2.55;;;;;;;;;;5031582;28;20049;-76
2022/03/03 07:10:54;;;;;;;3.05;2.22;;;;;;;;;;5031834;28;20032;-76
2022/03/03 07:13:20;;;;;;;4.32;2.28;;;;;;;;;;5031426;28;20029;-76
2022/03/03 07:15:49;;;;;;;3.17;2.50;;;;;;;;;;5031177;28;20075;-76
2022/03/03 07:18:21;;;;;;;3.75;2.60;;;18.20;65.30;;;;;;5011822;28;20040;-76
2022/03/03 07:21:05;;;;;;;2.90;2.25;;;20.20;67.10;;;;;;5011899;28;20400;-76
2022/03/03 07:23:32;;;;;;;5.65;2.70;;;;;;;;;;5011472;28;20401;-76
2022/03/03 07:26:00;;;;;;;3.80;2.80;;;;;;;;;;5011614;28;20054;-76
2022/03/03 07:28:27;;;;;;;3.30;2.08;;;;;;;;;;5017933;28;20045;-76
2022/03/03 07:30:53;;;;;;;3.55;2.42;;;;;;;;;;5031376;28;20026;-76
2022/03/03 07:33:24;;;;;;;2.97;2.08;;;20.80;67.30;;;;;;5015242;28;20128;-75
2022/03/03 07:35:51;;;;;;;3.80;2.45;;;;;;;;;;4993832;28;20026;-76
2022/03/03 07:38:19;;;;;;;3.80;2.50;;;;;;;;;;5031369;28;20029;-75
2022/03/03 07:40:47;;;;;;;3.78;2.30;;;;;;;;;;5052306;28;20061;-78
2022/03/03 07:43:14;;;;;;;3.10;2.47;;;;;;;;;;5052042;28;20025;-76
2022/03/03 07:45:41;;;;;;;3.42;2.38;;;;;;;;;;5051154;28;20051;-76
2022/03/03 07:48:07;;;;;;;3.50;2.45;;;;;;;;;;5051240;28;20025;-76
2022/03/03 07:50:39;;;;;;;4.00;2.92;;;;;;;;;;5046633;28;20377;-75
2022/03/03 07:53:06;;;;;;;3.63;2.60;;;;;;;;;;5031782;28;20034;-76
2022/03/03 07:55:33;;;;;;;3.75;2.67;;;;;;;;;;5031281;28;20040;-75
2022/03/03 07:58:02;;;;;;;4.07;2.78;;;;;;;;;;5004165;28;20030;-78
2022/03/03 08:00:33;;;;;;;5.88;3.63;;;;;;;;;;4990397;28;20030;-79
2022/03/03 08:03:00;;;;;;;3.28;2.97;;;;;;;;;;5007819;28;20485;-78
2022/03/03 08:05:29;;;;;;;4.55;2.88;;;;;;;;;;5027523;28;20487;-78
2022/03/03 08:07:56;;;;;;;3.17;2.70;;;;;;;;;;5028975;28;20025;-75
2022/03/03 08:10:25;;;;;;;6.93;3.80;;;;;;;;;;5016553;28;20108;-74
2022/03/03 08:12:54;;;;;;;4.65;3.00;;;;;;;;;;5017581;28;20033;-75
2022/03/03 08:15:20;;;;;;;4.88;3.55;;;;;;;;;;5040828;28;20076;-75
2022/03/03 08:17:51;;;;;;;4.80;3.17;;;;;;;;;;5010095;28;20473;-76
2022/03/03 08:20:17;;;;;;;4.05;3.20;;;;;;;;;;5012119;28;20017;-75
2022/03/03 08:22:43;;;;;;;3.97;3.10;;;;;;;;;;5011956;28;20109;-74
2022/03/03 08:25:10;;;;;;;3.90;2.90;;;;;;;;;;5026179;28;20499;-75
2022/03/03 08:27:37;;;;;;;3.95;2.85;;;;;;;;;;5022669;28;20036;-76
2022/03/03 08:30:04;;;;;;;4.63;2.90;;;;;;;;;;5011572;28;20088;-74
2022/03/03 08:32:32;;;;;;;4.05;3.17;;;;;;;;;;5011816;28;20096;-74
2022/03/03 08:35:06;;;;;;;5.22;3.53;;;17.70;64.80;;;;;;5011142;28;20060;-75
2022/03/03 08:37:38;;;;;;;5.47;3.28;;;19.80;65.30;;;;;;4993911;28;20426;-72
2022/03/03 08:40:10;;;;;;;4.75;3.28;;;19.70;65.50;;;;;;5004728;28;20030;-72
2022/03/03 08:42:37;;;;;;;3.97;2.90;;;;;;;;;;5022498;28;20105;-74
2022/03/03 08:45:05;;;;;;;5.60;3.25;;;;;;;;;;5012023;28;20029;-74
2022/03/03 08:47:32;;;;;;;6.45;3.30;;;;;;;;;;5019570;28;20029;-71
2022/03/03 08:50:00;;;;;;;4.20;3.30;;;;;;;;;;5020831;28;20029;-71
2022/03/03 08:52:27;;;;;;;4.95;3.53;;;;;;;;;;5031994;28;20042;-73
2022/03/03 08:54:53;;;;;;;3.65;3.25;;;;;;;;;;5025037;28;20119;-73
2022/03/03 08:57:19;;;;;;;4.88;3.38;;;;;;;;;;5024813;28;20633;-74
2022/03/03 08:59:45;;;;;;;5.72;3.67;;;;;;;;;;5009569;28;20046;-74
2022/03/03 09:02:16;;;;;;;5.45;3.53;;;;;;;;;;5006567;28;20030;-73
2022/03/03 09:04:42;;;;;;;4.10;3.47;;;;;;;;;;5009693;28;20034;-75
2022/03/03 09:07:09;;;;;;;4.18;3.17;;;;;;;;;;4992473;28;20076;-75
2022/03/03 09:09:35;;;;;;;5.90;3.28;;;;;;;;;;4992789;28;20053;-74
2022/03/03 09:12:03;;;;;;;6.55;3.58;;;;;;;;;;5010789;28;20029;-75
2022/03/03 09:14:30;;;;;;;5.55;3.40;;;;;;;;;;5024409;28;20033;-74
2022/03/03 09:16:56;;;;;;;5.80;3.20;;;;;;;;;;5000550;28;20050;-74
2022/03/03 09:19:22;;;;;;;3.97;2.88;;;;;;;;;;5014801;28;20532;-74
2022/03/03 09:21:49;;;;;;;6.82;3.55;;;;;;;;;;5032930;28;20029;-73
2022/03/03 09:24:15;;;;;;;5.97;3.22;;;;;;;;;;5012910;28;20065;-74
2022/03/03 09:26:41;;;;;;;4.68;3.03;;;;;;;;;;5017912;28;20033;-73
2022/03/03 09:29:08;;;;;;;4.85;3.17;;;;;;;;;;5033524;28;20067;-74
2022/03/03 09:31:35;;;;;;;4.70;3.33;;;;;;;;;;5024577;28;20037;-74
2022/03/03 09:34:01;;;;;;;5.10;3.55;;;;;;;;;;5016352;28;20014;-74
2022/03/03 09:36:27;;;;;;;5.70;3.60;;;;;;;;;;5010055;28;20107;-73
2022/03/03 09:38:53;;;;;;;5.38;3.40;;;;;;;;;;5025739;28;20032;-74
2022/03/03 09:41:19;;;;;;;4.53;3.38;;;;;;;;;;5019088;28;20030;-74
2022/03/03 09:43:46;;;;;;;3.92;3.30;;;;;;;;;;5011436;28;20100;-73
2022/03/03 09:46:12;;;;;;;5.05;3.20;;;;;;;;;;5013385;28;20459;-74
2022/03/03 09:48:38;;;;;;;4.22;3.40;;;;;;;;;;5007683;28;20493;-74
2022/03/03 09:51:04;;;;;;;5.38;3.67;;;;;;;;;;5012934;28;20018;-74
2022/03/03 09:53:32;;;;;;;4.30;3.42;;;;;;;;;;5023925;28;20045;-74
2022/03/03 09:55:58;;;;;;;6.15;3.65;;;;;;;;;;5014029;28;20405;-74
2022/03/03 09:58:25;;;;;;;5.47;3.25;;;;;;;;;;5013079;28;20038;-74
2022/03/03 10:00:51;;;;;;;4.32;3.08;;;;;;;;;;4997051;28;20028;-74
2022/03/03 10:03:18;;;;;;;4.68;3.10;;;;;;;;;;5026275;28;20032;-74
2022/03/03 10:05:45;;;;;;;6.35;3.03;;;;;;;;;;5014331;28;20041;-74
2022/03/03 10:08:12;;;;;;;7.15;3.63;;;;;;;;;;5009315;28;20052;-74
2022/03/03 10:10:40;;;;;;;4.75;3.30;;;;;;;;;;5019878;28;20030;-74
2022/03/03 10:13:07;;;;;;;6.20;3.97;;;;;;;;;;5010130;28;20033;-74
2022/03/03 10:15:33;;;;;;;5.75;3.72;;;;;;;;;;5015003;28;20022;-74
2022/03/03 10:18:20;;;;;;;5.50;3.45;;;20.10;67.80;;;;;;5018419;28;20026;-74
2022/03/03 10:20:46;;;;;;;5.57;3.50;;;;;;;;;;5022076;28;20021;-74
2022/03/03 10:23:12;;;;;;;4.68;3.58;;;;;;;;;;5000393;28;20034;-74
2022/03/03 10:25:39;;;;;;;5.65;3.28;;;;;;;;;;5010743;28;20056;-73
2022/03/03 10:28:24;;;;;;;4.70;3.35;;;20.00;67.90;;;;;;5020250;28;20029;-74
2022/03/03 10:30:58;;;;;;;3.83;3.10;;;20.40;65.50;;;;;;5014737;28;20018;-74
2022/03/03 10:33:25;;;;;;;5.68;3.78;;;;;;;;;;5010040;28;20029;-74
2022/03/03 10:36:04;;;;;;;5.85;2.95;;;18.60;66.90;;;;;;5014638;28;20056;-74
2022/03/03 10:38:30;;;;;;;6.07;3.47;;;;;;;;;;5013735;28;20072;-74
2022/03/03 10:40:56;;;;;;;6.25;3.60;;;;;;;;;;5032553;28;20028;-76
2022/03/03 10:43:23;;;;;;;8.55;3.78;;;;;;;;;;5015303;28;20029;-75
2022/03/03 10:45:59;;;;;;;5.63;3.72;;;20.20;68.00;;;;;;4994746;28;20026;-73
2022/03/03 10:48:26;;;;;;;5.22;3.53;;;;;;;;;;5004392;28;20527;-73
2022/03/03 10:50:58;;;;;;;4.50;3.70;;;;;;;;;;4993911;28;20158;-73
2022/03/03 10:53:25;;;;;;;6.50;3.88;;;;;;;;;;5014204;28;20679;-73
2022/03/03 10:56:05;;;;;;;4.78;3.90;;;18.00;66.60;;;;;;5009013;28;20501;-73
2022/03/03 10:58:49;;;;;;;8.27;4.25;;;20.40;65.60;;;;;;5009382;28;20708;-73
2022/03/03 11:01:18;;;;;;;6.22;4.00;;;;;;;;;;5010412;28;20085;-73
2022/03/03 11:03:52;;;;;;;5.50;3.92;;;;;;;;;;5011483;28;20030;-74
2022/03/03 11:06:18;;;;;;;;;;;20.60;67.90;;;;;;5012061;28;20030;-73
2022/03/03 11:08:45;;;;;;;8.43;4.30;;;;;;;;;;5012108;28;19924;-73
2022/03/03 11:11:11;;;;;;;7.13;4.32;;;;;;;;;;5039178;28;20557;-73
2022/03/03 11:13:39;;;;;;;7.90;4.40;;;;;;;;;;5037506;28;20041;-73
2022/03/03 11:16:05;;;;;;;9.75;5.30;;;;;;;;;;5011230;28;20516;-73
2022/03/03 11:18:32;;;;;;;8.88;5.75;;;;;;;;;;5002168;28;20030;-73
2022/03/03 11:20:58;;;;;;;13.43;6.28;;;;;;;;;;5031052;28;20518;-73
2022/03/03 11:23:24;;;;;;;14.05;6.47;;;;;;;;;;5025873;28;20026;-73
2022/03/03 11:25:52;;;;;;;11.02;5.65;;;;;;;;;;5015007;28;20040;-73
2022/03/03 11:28:19;;;;;;;16.92;8.02;;;;;;;;;;5030267;28;20048;-72
2022/03/03 11:30:46;;;;;;;13.98;6.85;;;;;;;;;;5030375;28;20021;-73
2022/03/03 11:33:22;;;;;;;16.13;8.10;;;18.10;68.50;;;;;;5029813;28;20412;-73
2022/03/03 11:35:50;;;;;;;17.63;8.27;;;;;;;;;;5030904;28;20022;-73
2022/03/03 11:38:19;;;;;;;13.27;6.80;;;;;;;;;;5029204;28;20037;-72
2022/03/03 11:40:58;;;;;;;14.25;8.45;;;20.80;67.60;;;;;;5030814;28;20040;-73
2022/03/03 11:43:25;;;;;;;10.63;6.38;;;;;;;;;;5014366;28;20400;-72
2022/03/03 11:45:56;;;;;;;17.95;8.63;;;;;;;;;;5014264;28;20084;-72
2022/03/03 11:48:23;;;;;;;16.00;8.60;;;;;;;;;;5028040;28;20025;-75
2022/03/03 11:50:50;;;;;;;16.77;8.75;;;;;;;;;;5025683;28;20073;-75
2022/03/03 11:53:25;;;;;;;16.70;9.05;;;18.10;67.10;;;;;;5014601;28;20492;-74
2022/03/03 11:56:00;;;;;;;20.08;11.65;;;19.10;65.10;;;;;;5014854;28;20049;-74
2022/03/03 11:58:38;;;;;;;17.60;10.70;;;20.10;67.00;;;;;;5014645;28;20468;-72
2022/03/03 12:01:08;;;;;;;12.40;6.63;;;;;;;;;;5000613;28;20575;-72
2022/03/03 12:03:59;;;;;;;12.80;8.25;;;19.30;65.70;;;;;;5051285;28;20025;-73
2022/03/03 12:06:40;;;;;;;14.10;8.15;;;20.30;66.10;;;;;;5033735;28;20039;-72
2022/03/03 12:09:41;;;;;;;25.35;13.85;;;20.90;66.40;;;;;;5028927;28;20155;-73
2022/03/03 12:12:08;;;;;;;12.48;7.10;;;;;;;;;;5010024;28;20077;-72
2022/03/03 12:14:37;;;;;;;10.30;4.03;;;;;;;;;;5049101;28;20372;-72
2022/03/03 12:17:41;;;;;;;5.65;3.53;;;24.30;69.90;;;;;;5037192;28;20487;-73
2022/03/03 12:20:35;;;;;;;7.50;4.05;;;21.30;65.00;;;;;;4940877;29;20032;-72
2022/03/03 12:23:16;;;;;;;8.10;4.18;;;21.00;65.70;;;;;;5026316;28;20034;-72
2022/03/03 12:25:51;;;;;;;12.07;6.45;;;20.00;66.40;;;;;;5018375;28;20044;-72
2022/03/03 12:28:18;;;;;;;13.68;8.98;;;;;;;;;;5012949;28;20034;-73
2022/03/03 12:30:45;;;;;;;18.17;7.82;;;;;;;;;;5012831;28;20108;-72
2022/03/03 12:33:27;;;;;;;8.77;4.18;;;22.10;70.40;;;;;;5021263;28;20036;-73
2022/03/03 12:36:00;;;;;;;9.07;4.68;;;;;;;;;;5028276;28;20033;-72
2022/03/03 12:38:27;;;;;;;13.20;8.52;;;;;;;;;;5017883;28;20036;-72
2022/03/03 12:40:54;;;;;;;11.77;6.45;;;;;;;;;;5000026;28;20148;-72
2022/03/03 12:43:21;;;;;;;9.80;5.45;;;;;;;;;;5020831;28;20034;-73
2022/03/03 12:45:48;;;;;;;8.45;5.57;;;;;;;;;;5028777;28;20021;-72
2022/03/03 12:48:28;;;;;;;12.82;6.38;;;18.20;66.70;;;;;;5050858;28;20029;-72
2022/03/03 12:51:03;;;;;;;12.05;8.20;;;21.40;66.40;;;;;;5015891;28;20029;-72
2022/03/03 12:53:43;;;;;;;10.45;7.07;;;18.80;65.30;;;;;;5026358;28;20122;-74
2022/03/03 12:56:10;;;;;;;10.52;7.32;;;;;;;;;;5023030;28;20168;-76
2022/03/03 12:58:36;;;;;;;12.65;8.75;;;;;;;;;;5004000;28;20128;-77
2022/03/03 13:01:03;;;;;;;10.38;6.88;;;;;;;;;;5023524;28;20034;-77
2022/03/03 13:03:33;;;;;;;13.75;8.73;;;;;;;;;;5017513;28;20037;-77
2022/03/03 13:06:03;;;;;;;16.63;9.75;;;;;;;;;;5023014;28;20491;-76
2022/03/03 13:08:36;;;;;;;17.55;9.40;;;17.80;68.20;;;;;;5015240;28;20045;-77
2022/03/03 13:11:07;;;;;;;12.85;9.65;;;;;;;;;;5019880;28;20029;-78
2022/03/03 13:13:48;;;;;;;17.55;8.93;;;24.10;70.50;;;;;;4991615;28;20098;-77
2022/03/03 13:16:14;;;;;;;15.38;9.38;;;;;;;;;;4998120;28;20456;-78
2022/03/03 13:18:40;;;;;;;18.92;9.95;;;;;;;;;;5014890;28;20037;-78
2022/03/03 13:21:08;;;;;;;18.85;9.73;;;;;;;;;;5011095;28;20041;-76
2022/03/03 13:23:35;;;;;;;14.88;8.65;;;;;;;;;;5014217;28;20685;-74
2022/03/03 13:26:03;;;;;;;15.02;8.63;;;;;;;;;;5015035;28;20354;-75
2022/03/03 13:28:29;;;;;;;14.40;9.75;;;;;;;;;;5016525;28;20052;-77
2022/03/03 13:30:56;;;;;;;15.63;9.15;;;;;;;;;;5003008;28;20065;-75
2022/03/03 13:33:53;;;;;;;13.52;8.70;;;20.30;70.00;;;;;;5008737;28;20532;-75
2022/03/03 13:36:21;;;;;;;12.98;8.65;;;;;;;;;;5009509;28;20053;-76
2022/03/03 13:38:48;;;;;;;12.68;8.82;;;;;;;;;;4999659;28;20060;-77
2022/03/03 13:41:25;;;;;;;11.80;8.15;;;23.60;71.20;;;;;;5030519;28;20034;-75
2022/03/03 13:44:17;;;;;;;11.35;7.80;;;21.00;68.30;;;;;;5035867;28;20025;-76
2022/03/03 13:47:05;;;;;;;9.65;7.18;;;22.60;67.80;;;;;;5022835;28;20488;-76
2022/03/03 13:49:33;;;;;;;11.52;7.88;;;;;;;;;;5013226;28;20041;-76
2022/03/03 13:52:31;;;;;;;14.13;7.80;;;18.20;67.90;;;;;;5009629;28;20056;-77
2022/03/03 13:54:58;;;;;;;12.73;8.65;;;;;;;;;;5009011;28;20018;-77
2022/03/03 13:57:49;;;;;;;10.85;7.30;;;18.50;69.10;;;;;;5014849;28;20109;-76
2022/03/03 14:00:51;;;;;;;11.25;6.97;;;21.30;69.20;;;;;;5020511;28;20049;-74
2022/03/03 14:03:17;;;;;;;10.65;7.55;;;;;;;;;;4983396;28;21118;-76
2022/03/03 14:05:47;;;;;;;10.63;7.88;;;;;;;;;;5012560;28;20053;-76
2022/03/03 14:08:32;;;;;;;11.60;7.30;;;21.20;71.50;;;;;;5027802;28;20045;-76
2022/03/03 14:11:03;;;;;;;9.65;6.72;;;;;;;;;;5005452;28;20913;-75
2022/03/03 14:13:31;;;;;;;11.00;7.60;;;;;;;;;;5017366;28;20374;-75
2022/03/03 14:15:58;;;;;;;11.50;7.75;;;;;;;;;;5028639;28;20761;-77
2022/03/03 14:18:24;;;;;;;9.63;6.85;;;;;;;;;;5001238;28;20037;-76
2022/03/03 14:20:54;;;;;;;11.80;6.90;;;;;;;;;;5013184;28;20037;-77
2022/03/03 14:23:24;;;;;;;13.27;7.15;;;;;;;;;;5023108;28;20049;-76
2022/03/03 14:25:51;;;;;;;8.52;6.30;;;;;;;;;;5017263;28;20517;-75
2022/03/03 14:28:18;;;;;;;6.97;6.13;;;;;;;;;;5017514;28;20018;-77
2022/03/03 14:30:45;;;;;;;8.68;6.13;;;;;;;;;;5007033;28;20079;-76